Webcam

2017/09/22 18:20 EBBR 221820Z 34003KT CAVOK 14/12 Q1023 NOSIG

Webcam

--- Refresh now ---